createdAt,value
2022-11-16T00:01:31.361Z,9.98
2022-11-16T00:04:04.669Z,9.55
2022-11-16T00:06:37.681Z,11.93
2022-11-16T00:09:26.897Z,9.77
2022-11-16T00:12:01.287Z,9.57
2022-11-16T00:14:36.429Z,9.70
2022-11-16T00:17:10.665Z,10.77
2022-11-16T00:19:43.495Z,10.20
2022-11-16T00:22:16.291Z,10.52
2022-11-16T00:24:49.333Z,10.00
2022-11-16T00:27:22.142Z,10.27
2022-11-16T00:29:54.999Z,8.63
2022-11-16T00:32:29.790Z,10.65
2022-11-16T00:35:02.613Z,8.45
2022-11-16T00:37:35.434Z,8.55
2022-11-16T00:40:09.672Z,10.27
2022-11-16T00:42:42.452Z,8.60
2022-11-16T00:45:15.403Z,9.05
2022-11-16T00:47:49.609Z,8.60
2022-11-16T00:50:22.466Z,8.90
2022-11-16T00:52:55.248Z,9.90
2022-11-16T00:55:28.070Z,9.65
2022-11-16T00:58:01.321Z,9.43
2022-11-16T01:00:34.172Z,10.45
2022-11-16T01:03:08.491Z,8.13
2022-11-16T01:05:44.946Z,11.07
2022-11-16T01:08:19.012Z,8.98
2022-11-16T01:10:52.821Z,10.43
2022-11-16T01:13:25.314Z,11.05
2022-11-16T01:15:58.154Z,10.02
2022-11-16T01:18:32.663Z,9.00
2022-11-16T01:21:07.735Z,8.65
2022-11-16T01:23:40.554Z,11.73
2022-11-16T01:26:14.242Z,9.45
2022-11-16T01:28:47.512Z,10.52
2022-11-16T01:31:20.821Z,9.52
2022-11-16T01:33:55.588Z,8.70
2022-11-16T01:36:28.456Z,8.55
2022-11-16T01:39:01.338Z,10.60
2022-11-16T01:41:34.717Z,10.02
2022-11-16T01:44:23.804Z,11.27
2022-11-16T01:46:56.589Z,10.13
2022-11-16T01:49:32.974Z,11.88
2022-11-16T01:52:11.413Z,9.27
2022-11-16T01:54:47.886Z,11.23
2022-11-16T01:57:25.961Z,10.57
2022-11-16T02:00:03.207Z,9.85
2022-11-16T02:02:36.240Z,10.02
2022-11-16T02:05:13.542Z,9.25
2022-11-16T02:08:22.103Z,10.57
2022-11-16T02:11:07.952Z,10.25
2022-11-16T02:13:54.362Z,11.20
2022-11-16T02:16:36.309Z,11.57
2022-11-16T02:19:27.560Z,11.82
2022-11-16T02:22:14.882Z,9.13
2022-11-16T02:25:01.211Z,8.18
2022-11-16T02:28:05.608Z,9.15
2022-11-16T02:30:45.788Z,7.88
2022-11-16T02:33:22.269Z,8.80
2022-11-16T02:35:58.150Z,7.60
2022-11-16T02:38:35.503Z,8.23
2022-11-16T02:41:13.573Z,6.20
2022-11-16T02:43:50.045Z,6.15
2022-11-16T02:46:29.516Z,9.43
2022-11-16T02:49:05.433Z,6.80
2022-11-16T02:51:40.876Z,6.30
2022-11-16T02:54:18.072Z,6.65
2022-11-16T02:56:56.530Z,8.18
2022-11-16T02:59:34.605Z,7.75
2022-11-16T03:02:22.012Z,8.25
2022-11-16T03:05:01.885Z,8.48
2022-11-16T03:07:39.325Z,6.82
2022-11-16T03:10:33.245Z,7.32
2022-11-16T03:13:06.971Z,7.68
2022-11-16T03:15:42.583Z,5.18
2022-11-16T03:18:19.384Z,7.38
2022-11-16T03:20:55.715Z,7.00
2022-11-16T03:23:29.286Z,7.00
2022-11-16T03:26:08.411Z,6.55
2022-11-16T03:28:48.621Z,8.25
2022-11-16T03:31:27.921Z,6.13
2022-11-16T03:34:08.156Z,6.57
2022-11-16T03:36:44.318Z,5.55
2022-11-16T03:39:22.367Z,7.82
2022-11-16T03:41:57.557Z,6.00
2022-11-16T03:44:31.619Z,6.95
2022-11-16T03:47:04.716Z,6.38
2022-11-16T03:49:38.881Z,4.70
2022-11-16T03:52:11.806Z,6.28
2022-11-16T03:54:44.952Z,4.03
2022-11-16T03:57:18.734Z,4.38
2022-11-16T03:59:51.564Z,5.32
2022-11-16T04:02:24.367Z,4.13
2022-11-16T04:05:15.628Z,5.72
2022-11-16T04:08:07.422Z,3.80
2022-11-16T04:10:57.944Z,4.68
2022-11-16T04:13:47.000Z,4.30
2022-11-16T04:16:37.452Z,3.80
2022-11-16T04:19:27.968Z,3.90
2022-11-16T04:22:24.669Z,3.65
2022-11-16T04:25:03.125Z,3.90
2022-11-16T04:28:08.100Z,3.92
2022-11-16T04:30:59.833Z,4.25
2022-11-16T04:33:51.169Z,4.32
2022-11-16T04:36:42.277Z,3.45
2022-11-16T04:39:16.568Z,4.40
2022-11-16T04:42:06.994Z,3.95
2022-11-16T04:44:57.068Z,3.20
2022-11-16T04:47:29.959Z,4.25
2022-11-16T04:50:02.884Z,4.38
2022-11-16T04:52:35.684Z,3.47
2022-11-16T04:55:11.224Z,3.10
2022-11-16T04:57:44.130Z,4.00
2022-11-16T05:00:18.197Z,4.10
2022-11-16T05:02:51.416Z,4.45
2022-11-16T05:05:24.289Z,3.83
2022-11-16T05:07:57.465Z,3.55
2022-11-16T05:10:31.665Z,3.78
2022-11-16T05:13:04.569Z,3.80
2022-11-16T05:15:37.432Z,2.78
2022-11-16T05:18:10.284Z,4.38
2022-11-16T05:21:00.811Z,4.45
2022-11-16T05:23:51.421Z,3.35
2022-11-16T05:26:25.666Z,7.65
2022-11-16T05:28:58.853Z,2.83
2022-11-16T05:31:35.069Z,3.38
2022-11-16T05:34:17.239Z,3.40
2022-11-16T05:36:50.169Z,3.15
2022-11-16T05:39:23.543Z,3.50
2022-11-16T05:41:58.116Z,4.15
2022-11-16T05:44:31.026Z,3.30
2022-11-16T05:47:04.039Z,3.50
2022-11-16T05:49:37.299Z,5.03
2022-11-16T05:52:10.173Z,3.47
2022-11-16T05:54:43.123Z,3.05
2022-11-16T05:57:18.341Z,2.88
2022-11-16T05:59:51.481Z,3.15
2022-11-16T06:02:24.317Z,2.00
2022-11-16T06:04:57.215Z,2.10
2022-11-16T06:10:20.824Z,3.22
2022-11-16T06:12:55.010Z,2.50
2022-11-16T06:15:28.278Z,2.80
2022-11-16T06:18:01.078Z,2.63
2022-11-16T06:20:34.260Z,2.47
2022-11-16T06:23:07.584Z,3.00
2022-11-16T06:25:41.152Z,2.63
2022-11-16T06:28:15.616Z,3.22
2022-11-16T06:30:49.547Z,2.53
2022-11-16T06:33:26.200Z,4.03
2022-11-16T06:36:00.549Z,2.67
2022-11-16T06:38:33.873Z,2.50
2022-11-16T06:41:07.044Z,2.38
2022-11-16T06:43:41.291Z,2.35
2022-11-16T06:46:14.206Z,2.97
2022-11-16T06:48:47.036Z,2.50
2022-11-16T06:51:19.924Z,2.00
2022-11-16T06:53:52.723Z,2.60
2022-11-16T06:56:25.601Z,2.25
2022-11-16T06:58:59.899Z,3.50
2022-11-16T07:01:32.971Z,5.38
2022-11-16T07:04:05.799Z,3.63
2022-11-16T07:06:39.515Z,3.97
2022-11-16T07:09:12.561Z,3.50
2022-11-16T07:11:45.987Z,3.45
2022-11-16T07:14:20.523Z,3.72
2022-11-16T07:17:05.184Z,3.53
2022-11-16T07:19:43.477Z,3.33
2022-11-16T07:22:16.355Z,2.88
2022-11-16T07:24:51.345Z,4.10
2022-11-16T07:27:29.645Z,2.15
2022-11-16T07:30:05.612Z,2.83
2022-11-16T07:32:40.018Z,3.40
2022-11-16T07:35:13.063Z,3.30
2022-11-16T07:37:45.921Z,1.92
2022-11-16T07:40:18.773Z,3.03
2022-11-16T07:42:51.719Z,2.65
2022-11-16T07:45:26.031Z,2.80
2022-11-16T07:47:59.007Z,3.40
2022-11-16T07:50:31.813Z,2.80
2022-11-16T07:53:04.708Z,2.60
2022-11-16T07:55:37.580Z,2.40
2022-11-16T07:58:10.591Z,2.40
2022-11-16T08:00:44.749Z,2.35
2022-11-16T08:03:23.404Z,2.92
2022-11-16T08:06:02.839Z,4.78
2022-11-16T08:08:36.239Z,3.30
2022-11-16T08:11:11.418Z,2.90
2022-11-16T08:13:44.410Z,3.45
2022-11-16T08:16:20.436Z,2.60
2022-11-16T08:18:53.322Z,2.25
2022-11-16T08:21:26.194Z,2.70
2022-11-16T08:23:59.406Z,4.95
2022-11-16T08:26:32.777Z,3.50
2022-11-16T08:29:05.601Z,3.20
2022-11-16T08:31:39.879Z,3.92
2022-11-16T08:34:12.801Z,3.67
2022-11-16T08:36:45.608Z,2.78
2022-11-16T08:42:09.222Z,3.38
2022-11-16T08:44:42.022Z,2.88
2022-11-16T08:47:16.299Z,3.03
2022-11-16T08:49:49.807Z,3.97
2022-11-16T08:52:22.700Z,3.30
2022-11-16T08:54:55.693Z,3.42
2022-11-16T08:57:28.486Z,3.28
2022-11-16T09:00:01.423Z,3.22
2022-11-16T09:02:36.040Z,2.90
2022-11-16T09:05:12.000Z,3.45
2022-11-16T09:07:46.196Z,2.83
2022-11-16T09:10:23.051Z,2.33
2022-11-16T09:12:57.808Z,2.92
2022-11-16T09:15:33.486Z,2.60
2022-11-16T09:18:09.620Z,2.90
2022-11-16T09:20:46.563Z,2.10
2022-11-16T09:23:24.862Z,4.75
2022-11-16T09:26:02.107Z,2.88
2022-11-16T09:28:37.338Z,2.05
2022-11-16T09:31:23.749Z,3.33
2022-11-16T09:34:04.374Z,2.78
2022-11-16T09:36:37.243Z,2.47
2022-11-16T09:39:29.585Z,2.20
2022-11-16T09:42:18.418Z,1.95
2022-11-16T09:45:04.677Z,2.05
2022-11-16T09:47:44.378Z,4.07
2022-11-16T09:50:32.742Z,2.38
2022-11-16T09:53:22.050Z,2.90
2022-11-16T09:55:59.983Z,2.05
2022-11-16T09:58:40.225Z,3.22
2022-11-16T10:01:23.748Z,1.70
2022-11-16T10:04:02.805Z,2.45
2022-11-16T10:06:54.677Z,2.22
2022-11-16T10:12:12.422Z,1.75
2022-11-16T10:15:04.887Z,2.80
2022-11-16T10:18:03.397Z,1.60
2022-11-16T10:20:53.845Z,1.55
2022-11-16T10:23:39.170Z,1.48
2022-11-16T10:26:25.166Z,1.10
2022-11-16T10:29:16.071Z,1.48
2022-11-16T10:32:03.117Z,3.92
2022-11-16T10:34:46.528Z,1.60
2022-11-16T10:37:20.318Z,1.75
2022-11-16T10:39:54.497Z,2.33
2022-11-16T10:42:36.116Z,2.72
2022-11-16T10:45:20.598Z,1.25
2022-11-16T10:47:58.551Z,1.67
2022-11-16T10:50:36.337Z,1.65
2022-11-16T10:53:15.633Z,1.90
2022-11-16T10:56:02.238Z,8.88
2022-11-16T10:58:52.352Z,1.23
2022-11-16T11:01:39.041Z,1.10
2022-11-16T11:04:18.410Z,2.95
2022-11-16T11:06:55.699Z,1.60
2022-11-16T11:09:32.504Z,6.78
2022-11-16T11:12:33.033Z,1.85
2022-11-16T11:15:21.316Z,1.98
2022-11-16T11:18:19.131Z,1.08
2022-11-16T11:21:05.523Z,1.75
2022-11-16T11:23:43.946Z,1.55
2022-11-16T11:26:40.287Z,3.30
2022-11-16T11:29:26.261Z,1.92
2022-11-16T11:32:05.793Z,1.27
2022-11-16T11:34:42.793Z,2.47
2022-11-16T11:37:32.530Z,2.75
2022-11-16T11:40:08.124Z,1.58
2022-11-16T11:42:52.424Z,1.77
2022-11-16T11:45:34.604Z,1.70
2022-11-16T11:48:22.778Z,3.40
2022-11-16T11:51:01.294Z,0.70
2022-11-16T11:53:55.688Z,1.33
2022-11-16T11:56:31.883Z,1.42
2022-11-16T11:59:06.179Z,1.25
2022-11-16T12:02:10.899Z,1.27
2022-11-16T12:05:21.560Z,1.38
2022-11-16T12:08:12.558Z,0.70
2022-11-16T12:10:51.150Z,1.03
2022-11-16T12:13:40.836Z,1.33
2022-11-16T12:16:23.554Z,2.75
2022-11-16T12:19:14.255Z,0.75
2022-11-16T12:22:04.322Z,0.98
2022-11-16T12:24:50.282Z,1.05
2022-11-16T12:27:32.998Z,0.75
2022-11-16T12:30:12.724Z,1.17
2022-11-16T12:33:12.455Z,0.95
2022-11-16T12:36:10.027Z,3.67
2022-11-16T12:38:56.535Z,0.30
2022-11-16T12:41:51.250Z,0.88
2022-11-16T12:44:34.849Z,0.70
2022-11-16T12:47:17.917Z,1.27
2022-11-16T12:50:15.113Z,3.65
2022-11-16T12:53:03.947Z,0.47
2022-11-16T12:55:47.464Z,1.25
2022-11-16T12:58:33.757Z,1.17
2022-11-16T13:01:13.387Z,1.05
2022-11-16T13:03:52.224Z,1.42
2022-11-16T13:06:31.143Z,1.80
2022-11-16T13:09:12.265Z,2.15
2022-11-16T13:11:49.977Z,4.47
2022-11-16T13:14:26.799Z,1.13
2022-11-16T13:17:03.035Z,1.20
2022-11-16T13:19:43.458Z,4.60
2022-11-16T13:22:21.977Z,0.50
2022-11-16T13:25:01.296Z,2.50
2022-11-16T13:27:42.793Z,0.77
2022-11-16T13:30:19.633Z,3.92
2022-11-16T13:33:15.111Z,0.88
2022-11-16T13:35:47.932Z,0.43
2022-11-16T13:38:53.440Z,1.33
2022-11-16T13:41:35.672Z,1.30
2022-11-16T13:44:15.685Z,2.70
2022-11-16T13:46:56.250Z,0.30
2022-11-16T13:49:34.384Z,0.60
2022-11-16T13:52:23.265Z,0.93
2022-11-16T13:55:11.729Z,0.70
2022-11-16T13:57:52.522Z,1.67
2022-11-16T14:00:30.468Z,0.45
2022-11-16T14:03:45.863Z,4.57
2022-11-16T14:07:03.725Z,1.23
2022-11-16T14:09:46.595Z,1.08
2022-11-16T14:12:56.446Z,6.22
2022-11-16T14:15:36.648Z,0.90
2022-11-16T14:18:35.180Z,1.75
2022-11-16T14:21:16.435Z,0.68
2022-11-16T14:24:05.568Z,0.77
2022-11-16T14:26:59.489Z,0.52
2022-11-16T14:29:58.973Z,1.50
2022-11-16T14:32:42.428Z,1.30
2022-11-16T14:35:29.393Z,1.80
2022-11-16T14:38:04.991Z,0.60
2022-11-16T14:40:54.868Z,0.70
2022-11-16T14:43:35.479Z,1.15
2022-11-16T14:46:26.547Z,0.98
2022-11-16T14:49:03.683Z,1.83
2022-11-16T14:51:52.914Z,2.40
2022-11-16T14:54:33.627Z,0.95
2022-11-16T14:57:08.833Z,1.83
2022-11-16T14:59:41.682Z,1.38
2022-11-16T15:02:21.526Z,3.53
2022-11-16T15:04:56.175Z,3.65
2022-11-16T15:07:30.912Z,2.55
2022-11-16T15:10:07.430Z,1.25
2022-11-16T15:12:43.290Z,1.33
2022-11-16T15:15:20.237Z,1.10
2022-11-16T15:18:07.220Z,0.60
2022-11-16T15:20:49.443Z,1.48
2022-11-16T15:23:27.648Z,1.02
2022-11-16T15:26:05.386Z,0.93
2022-11-16T15:28:49.792Z,2.45
2022-11-16T15:31:56.144Z,1.15
2022-11-16T15:42:03.954Z,2.08
2022-11-16T15:44:47.114Z,1.77
2022-11-16T15:47:47.050Z,2.90
2022-11-16T15:50:23.195Z,1.60
2022-11-16T15:52:57.162Z,3.08
2022-11-16T15:55:34.952Z,2.70
2022-11-16T15:58:16.533Z,1.63
2022-11-16T16:00:50.168Z,1.00
2022-11-16T16:03:25.181Z,3.33
2022-11-16T16:05:58.245Z,1.75
2022-11-16T16:08:36.706Z,2.65
2022-11-16T16:11:27.887Z,1.73
2022-11-16T16:14:04.150Z,1.67
2022-11-16T16:16:38.209Z,3.80
2022-11-16T16:19:36.215Z,1.83
2022-11-16T16:22:25.816Z,2.38
2022-11-16T16:25:01.506Z,3.08
2022-11-16T16:27:42.081Z,3.63
2022-11-16T16:30:25.908Z,3.20
2022-11-16T16:33:02.649Z,2.42
2022-11-16T16:35:41.057Z,1.63
2022-11-16T16:38:17.046Z,1.85
2022-11-16T16:40:50.281Z,1.48
2022-11-16T16:43:23.353Z,0.85
2022-11-16T16:45:58.151Z,1.42
2022-11-16T16:48:31.239Z,4.05
2022-11-16T16:51:04.326Z,2.88
2022-11-16T16:53:37.506Z,2.58
2022-11-16T16:56:20.027Z,1.80
2022-11-16T16:59:02.562Z,1.25
2022-11-16T17:01:37.879Z,1.65
2022-11-16T17:04:11.946Z,1.33
2022-11-16T17:06:46.672Z,1.58
2022-11-16T17:09:21.755Z,1.73
2022-11-16T17:11:58.862Z,2.20
2022-11-16T17:14:33.022Z,1.58
2022-11-16T17:17:07.950Z,2.60
2022-11-16T17:19:42.238Z,3.20
2022-11-16T17:22:15.903Z,3.15
2022-11-16T17:24:50.955Z,3.97
2022-11-16T17:27:25.779Z,2.35
2022-11-16T17:30:00.752Z,2.28
2022-11-16T17:32:37.402Z,1.88
2022-11-16T17:35:12.921Z,3.28
2022-11-16T17:37:48.505Z,1.73
2022-11-16T17:40:25.898Z,3.05
2022-11-16T17:43:00.638Z,1.95
2022-11-16T17:45:38.539Z,2.80
2022-11-16T17:48:18.154Z,1.75
2022-11-16T17:51:02.304Z,3.13
2022-11-16T17:53:36.957Z,3.13
2022-11-16T17:56:14.317Z,2.38
2022-11-16T17:58:54.208Z,1.63
2022-11-16T18:01:28.735Z,2.88
2022-11-16T18:04:13.302Z,2.03
2022-11-16T18:06:49.531Z,2.03
2022-11-16T18:09:26.219Z,2.58
2022-11-16T18:12:02.107Z,3.63
2022-11-16T18:14:39.878Z,2.90
2022-11-16T18:17:12.903Z,3.13
2022-11-16T18:19:47.496Z,2.05
2022-11-16T18:22:23.451Z,4.70
2022-11-16T18:24:56.369Z,4.80
2022-11-16T18:27:29.450Z,6.20
2022-11-16T18:30:04.008Z,4.38
2022-11-16T18:32:36.949Z,4.55
2022-11-16T18:35:13.833Z,4.78
2022-11-16T18:37:47.020Z,4.90
2022-11-16T18:40:20.260Z,5.40
2022-11-16T18:42:54.900Z,3.17
2022-11-16T18:45:28.087Z,2.35
2022-11-16T18:48:06.985Z,4.18
2022-11-16T18:51:26.387Z,2.90
2022-11-16T18:57:03.438Z,3.97
2022-11-16T18:59:36.889Z,4.57
2022-11-16T19:02:14.919Z,3.92
2022-11-16T19:04:51.248Z,3.58
2022-11-16T19:07:26.829Z,3.05
2022-11-16T19:10:01.386Z,3.30
2022-11-16T19:12:34.965Z,1.75
2022-11-16T19:15:08.741Z,3.53
2022-11-16T19:18:19.311Z,2.63
2022-11-16T19:20:46.368Z,3.92
2022-11-16T19:23:21.876Z,1.90
2022-11-16T19:26:05.683Z,1.58
2022-11-16T19:28:43.083Z,3.45
2022-11-16T19:31:28.789Z,3.90
2022-11-16T19:34:10.162Z,4.15
2022-11-16T19:36:43.153Z,4.63
2022-11-16T19:39:28.325Z,6.47
2022-11-16T19:42:12.454Z,8.13
2022-11-16T19:45:12.284Z,4.95
2022-11-16T19:47:45.775Z,4.22
2022-11-16T19:50:19.349Z,6.10
2022-11-16T19:53:01.000Z,7.72
2022-11-16T19:55:34.117Z,6.97
2022-11-16T19:58:08.607Z,5.50
2022-11-16T20:00:41.843Z,5.28
2022-11-16T20:03:16.652Z,5.63
2022-11-16T20:05:52.540Z,4.65
2022-11-16T20:08:25.650Z,5.38
2022-11-16T20:10:59.762Z,4.55
2022-11-16T20:13:34.434Z,3.60
2022-11-16T20:16:09.724Z,3.60
2022-11-16T20:18:44.532Z,2.70
2022-11-16T20:21:22.755Z,2.75
2022-11-16T20:24:01.543Z,3.55
2022-11-16T20:26:41.584Z,2.00
2022-11-16T20:29:19.597Z,1.38
2022-11-16T20:31:52.625Z,2.00
2022-11-16T20:34:25.594Z,3.38
2022-11-16T20:36:58.606Z,3.65
2022-11-16T20:39:31.584Z,3.00
2022-11-16T20:42:05.421Z,3.67
2022-11-16T20:44:40.067Z,4.10
2022-11-16T20:47:13.208Z,2.28
2022-11-16T20:49:46.275Z,2.35
2022-11-16T20:52:19.234Z,2.13
2022-11-16T20:54:55.963Z,2.50
2022-11-16T20:57:33.854Z,2.72
2022-11-16T21:00:12.190Z,3.72
2022-11-16T21:02:48.291Z,1.52
2022-11-16T21:05:21.333Z,2.42
2022-11-16T21:07:54.426Z,2.42
2022-11-16T21:10:27.749Z,3.22
2022-11-16T21:13:18.352Z,2.40
2022-11-16T21:16:09.206Z,2.35
2022-11-16T21:18:45.316Z,2.45
2022-11-16T21:21:18.313Z,2.40
2022-11-16T21:23:53.314Z,2.58
2022-11-16T21:26:27.751Z,3.03
2022-11-16T21:29:02.487Z,4.15
2022-11-16T21:31:38.711Z,3.42
2022-11-16T21:34:11.677Z,2.53
2022-11-16T21:36:50.286Z,4.18
2022-11-16T21:39:23.363Z,2.80
2022-11-16T21:41:56.766Z,2.97
2022-11-16T21:44:41.915Z,2.92
2022-11-16T21:47:19.361Z,3.50
2022-11-16T21:50:29.663Z,4.90
2022-11-16T21:52:49.246Z,2.65
2022-11-16T21:55:25.058Z,2.47
2022-11-16T21:57:58.559Z,5.20
2022-11-16T22:00:31.595Z,4.10
2022-11-16T22:03:06.059Z,4.75
2022-11-16T22:05:56.525Z,4.45
2022-11-16T22:08:29.685Z,4.07
2022-11-16T22:11:03.051Z,5.20
2022-11-16T22:13:36.477Z,2.58
2022-11-16T22:16:11.561Z,3.13
2022-11-16T22:18:46.397Z,2.22
2022-11-16T22:21:19.727Z,1.83
2022-11-16T22:23:52.725Z,3.90
2022-11-16T22:26:25.808Z,4.07
2022-11-16T22:28:59.647Z,2.15
2022-11-16T22:31:35.464Z,3.00
2022-11-16T22:34:09.868Z,15.18
2022-11-16T22:36:42.784Z,5.22
2022-11-16T22:39:15.812Z,5.18
2022-11-16T22:41:48.746Z,3.92
2022-11-16T22:44:22.300Z,4.40
2022-11-16T22:46:55.302Z,3.45
2022-11-16T22:49:29.978Z,3.28
2022-11-16T22:52:03.151Z,1.65
2022-11-16T22:54:38.916Z,3.45
2022-11-16T22:57:11.835Z,3.47
2022-11-16T22:59:44.825Z,3.58
2022-11-16T23:02:17.995Z,3.92
2022-11-16T23:04:52.371Z,3.10
2022-11-16T23:07:25.427Z,1.35
2022-11-16T23:09:58.560Z,3.35
2022-11-16T23:12:49.020Z,2.95
2022-11-16T23:15:44.656Z,2.92
2022-11-16T23:18:19.636Z,2.70
2022-11-16T23:21:11.375Z,1.48
2022-11-16T23:24:01.671Z,1.90
2022-11-16T23:26:51.908Z,2.10
2022-11-16T23:29:25.002Z,1.33
2022-11-16T23:31:57.996Z,2.40
2022-11-16T23:34:30.937Z,2.88
2022-11-16T23:37:06.734Z,4.10
2022-11-16T23:39:39.673Z,1.48
2022-11-16T23:42:30.519Z,2.38
2022-11-16T23:45:04.016Z,1.95
2022-11-16T23:47:37.109Z,1.98
2022-11-16T23:50:10.698Z,2.75
2022-11-16T23:52:45.739Z,2.35
2022-11-16T23:55:18.912Z,2.40
2022-11-16T23:57:52.546Z,2.88
